Terminal Aerodrome Forecast
Issued by NWS Pittsburgh, PA

Current Version | Previous Version | Graphics & Text | Print | Product List | Glossary On
Versions: 1 2 3 4 5 6 7 8 9 10 11 12 13 14 15 16 17 18 19 20 21 22 23 24 25 26 27
000
FTUS41 KPBZ 151738
TAFPIT
TAF
KPIT 151738Z 1518/1624 16008KT P6SM BKN150
     FM160000 18008KT 3SM -SHRA OVC050
     FM160300 21010KT 4SM -SHRA OVC015
     FM160500 23010KT P6SM OVC008
     FM160700 24010KT P6SM OVC015
     FM161400 27015G25KT P6SM VCSH BKN025=

USA.gov is the U.S. government's official web portal to all federal, state and local government web resources and services.